SVR205 USSS-URMM
Flight info
| Callsign | SVR205 |
|---|---|
| Flight time | N/A |
| Altitude | 38000 |
| Route | INLEB6C INLEB DCT IMANA L992 SANIR DCT RIMUN DCT KURUL DCT KODUM DCT IPLED DCT GOTIK DCT MEMZA A962 OKARU OKARU5A |
| Aircraft | A20N/M-VGDW/C |
Departure
| Time | 2026-05-04 14:17 |
|---|---|
| Airport | Koltsovo Airport (USSS) |
Arrival
| Time | N/A |
|---|---|
| Airport | Mineralnye Vody Airport (URMM) |
| Time | Latitude | Longitude | Altitude | Speed | Heading |
|---|---|---|---|---|---|
| 2026-05-04 13:56 | 56.74945 | 60.80497 | 780 ft | 0 kts | 359° |
| 2026-05-04 14:08 | 56.74920 | 60.80498 | 779 ft | 4 kts | 359° |
| 2026-05-04 14:08 | 56.74892 | 60.80499 | 779 ft | 4 kts | 359° |
| 2026-05-04 14:09 | 56.74860 | 60.80489 | 779 ft | 2 kts | 55° |
| 2026-05-04 14:09 | 56.74854 | 60.80472 | 779 ft | 2 kts | 78° |
| 2026-05-04 14:10 | 56.74853 | 60.80445 | 779 ft | 0 kts | 90° |
| 2026-05-04 14:12 | 56.74853 | 60.80448 | 779 ft | 2 kts | 91° |
| 2026-05-04 14:13 | 56.74852 | 60.80523 | 779 ft | 10 kts | 91° |
| 2026-05-04 14:13 | 56.74850 | 60.80680 | 779 ft | 14 kts | 91° |
| 2026-05-04 14:13 | 56.74852 | 60.80879 | 779 ft | 17 kts | 91° |
| 2026-05-04 14:13 | 56.74863 | 60.81104 | 779 ft | 19 kts | 85° |
| 2026-05-04 14:14 | 56.74863 | 60.81349 | 779 ft | 20 kts | 89° |
| 2026-05-04 14:14 | 56.74848 | 60.81887 | 779 ft | 22 kts | 115° |
| 2026-05-04 14:14 | 56.74778 | 60.82140 | 779 ft | 19 kts | 118° |
| 2026-05-04 14:15 | 56.74594 | 60.82202 | 780 ft | 9 kts | 178° |
| 2026-05-04 14:15 | 56.74473 | 60.82146 | 781 ft | 11 kts | 263° |
| 2026-05-04 14:16 | 56.74475 | 60.81210 | 776 ft | 94 kts | 270° |
| 2026-05-04 14:16 | 56.74477 | 60.79673 | 776 ft | 146 kts | 270° |
| 2026-05-04 14:17 | 56.74470 | 60.75725 | 1801 ft | 156 kts | 269° |
| 2026-05-04 14:17 | 56.74467 | 60.73736 | 2438 ft | 154 kts | 269° |
| 2026-05-04 14:17 | 56.74461 | 60.69497 | 3330 ft | 184 kts | 270° |
| 2026-05-04 14:18 | 56.74455 | 60.67045 | 3829 ft | 204 kts | 270° |
| 2026-05-04 14:18 | 56.74272 | 60.61270 | 4839 ft | 253 kts | 252° |
| 2026-05-04 14:19 | 56.71777 | 60.56725 | 6686 ft | 269 kts | 215° |
| 2026-05-04 14:19 | 56.70180 | 60.54885 | 7664 ft | 273 kts | 215° |
| 2026-05-04 14:19 | 56.68563 | 60.52993 | 8603 ft | 278 kts | 215° |
| 2026-05-04 14:19 | 56.66927 | 60.51052 | 9561 ft | 283 kts | 215° |
| 2026-05-04 14:20 | 56.65259 | 60.49057 | 10315 ft | 294 kts | 216° |
| 2026-05-04 14:20 | 56.63484 | 60.46921 | 10672 ft | 318 kts | 215° |
| 2026-05-04 14:20 | 56.61575 | 60.44627 | 11090 ft | 336 kts | 215° |
| 2026-05-04 14:21 | 56.57643 | 60.39925 | 12760 ft | 345 kts | 215° |
| 2026-05-04 14:21 | 56.55620 | 60.37512 | 13575 ft | 350 kts | 215° |
| 2026-05-04 14:21 | 56.53571 | 60.35070 | 14344 ft | 354 kts | 215° |
| 2026-05-04 14:21 | 56.51505 | 60.32612 | 15121 ft | 356 kts | 215° |
| 2026-05-04 14:22 | 56.49426 | 60.30141 | 15888 ft | 359 kts | 215° |
| 2026-05-04 14:22 | 56.47327 | 60.27647 | 16637 ft | 363 kts | 216° |
| 2026-05-04 14:22 | 56.45211 | 60.25137 | 17396 ft | 365 kts | 216° |
| 2026-05-04 14:22 | 56.43072 | 60.22608 | 18140 ft | 369 kts | 215° |
| 2026-05-04 14:23 | 56.38373 | 60.18656 | 19493 ft | 377 kts | 200° |
| 2026-05-04 14:23 | 56.35817 | 60.17473 | 20166 ft | 380 kts | 196° |
| 2026-05-04 14:23 | 56.33232 | 60.16379 | 20846 ft | 382 kts | 196° |
| 2026-05-04 14:24 | 56.30671 | 60.15282 | 21493 ft | 384 kts | 197° |
| 2026-05-04 14:24 | 56.28064 | 60.14158 | 22151 ft | 386 kts | 197° |
| 2026-05-04 14:24 | 56.25446 | 60.13026 | 22813 ft | 388 kts | 197° |
| 2026-05-04 14:24 | 56.22819 | 60.11891 | 23485 ft | 389 kts | 197° |
| 2026-05-04 14:25 | 56.20187 | 60.10757 | 24064 ft | 389 kts | 198° |
| 2026-05-04 14:25 | 56.14924 | 60.08496 | 25245 ft | 388 kts | 199° |
| 2026-05-04 14:25 | 56.12289 | 60.07366 | 25805 ft | 389 kts | 199° |
| 2026-05-04 14:26 | 56.09665 | 60.06243 | 26373 ft | 388 kts | 199° |
| 2026-05-04 14:26 | 56.07038 | 60.05119 | 26926 ft | 388 kts | 200° |
| 2026-05-04 14:26 | 56.04413 | 60.03996 | 27470 ft | 387 kts | 200° |
| 2026-05-04 14:26 | 56.01824 | 60.02891 | 28002 ft | 387 kts | 200° |
| 2026-05-04 14:27 | 55.99203 | 60.01773 | 28513 ft | 387 kts | 201° |
| 2026-05-04 14:27 | 55.96581 | 60.00656 | 29013 ft | 387 kts | 201° |
| 2026-05-04 14:27 | 55.93961 | 59.99540 | 29515 ft | 387 kts | 201° |
| 2026-05-04 14:27 | 55.91337 | 59.98423 | 29915 ft | 388 kts | 201° |
| 2026-05-04 14:28 | 55.88704 | 59.97302 | 30211 ft | 391 kts | 201° |
| 2026-05-04 14:28 | 55.86040 | 59.96167 | 30458 ft | 395 kts | 201° |
| 2026-05-04 14:28 | 55.83353 | 59.95027 | 30717 ft | 398 kts | 201° |
| 2026-05-04 14:28 | 55.80681 | 59.93895 | 31001 ft | 401 kts | 200° |
| 2026-05-04 14:29 | 55.75233 | 59.91595 | 31681 ft | 403 kts | 200° |
| 2026-05-04 14:29 | 55.69753 | 59.89285 | 32353 ft | 405 kts | 200° |
| 2026-05-04 14:30 | 55.67007 | 59.88130 | 32717 ft | 405 kts | 200° |
| 2026-05-04 14:30 | 55.64256 | 59.86975 | 33030 ft | 407 kts | 200° |
| 2026-05-04 14:30 | 55.58734 | 59.84661 | 33689 ft | 408 kts | 200° |
| 2026-05-04 14:31 | 55.55969 | 59.83505 | 33991 ft | 409 kts | 199° |
| 2026-05-04 14:31 | 55.50446 | 59.81201 | 34477 ft | 411 kts | 199° |
| 2026-05-04 14:32 | 55.44863 | 59.78880 | 34933 ft | 413 kts | 199° |
| 2026-05-04 14:32 | 55.42058 | 59.77716 | 35154 ft | 414 kts | 199° |
| 2026-05-04 14:32 | 55.39252 | 59.76554 | 35370 ft | 415 kts | 199° |
| 2026-05-04 14:32 | 55.36432 | 59.75422 | 35594 ft | 416 kts | 198° |
| 2026-05-04 14:33 | 55.33590 | 59.74342 | 35801 ft | 417 kts | 198° |
| 2026-05-04 14:33 | 55.30745 | 59.73275 | 36007 ft | 418 kts | 198° |
| 2026-05-04 14:33 | 55.27887 | 59.72201 | 36223 ft | 419 kts | 198° |
| 2026-05-04 14:33 | 55.25074 | 59.71139 | 36413 ft | 420 kts | 198° |
| 2026-05-04 14:34 | 55.22218 | 59.70050 | 36603 ft | 420 kts | 199° |
| 2026-05-04 14:34 | 55.19408 | 59.68667 | 36791 ft | 418 kts | 202° |
| 2026-05-04 14:34 | 55.16624 | 59.67160 | 36973 ft | 419 kts | 202° |
| 2026-05-04 14:34 | 55.13830 | 59.65650 | 37140 ft | 420 kts | 202° |
| 2026-05-04 14:35 | 55.11038 | 59.64149 | 37318 ft | 421 kts | 202° |
| 2026-05-04 14:35 | 55.08237 | 59.62648 | 37487 ft | 421 kts | 201° |
| 2026-05-04 14:35 | 55.05427 | 59.61148 | 37653 ft | 422 kts | 201° |
| 2026-05-04 14:35 | 55.02615 | 59.59650 | 37812 ft | 423 kts | 201° |
| 2026-05-04 14:36 | 54.99792 | 59.58149 | 37869 ft | 424 kts | 201° |
| 2026-05-04 14:36 | 54.94170 | 59.55167 | 37871 ft | 421 kts | 201° |
| 2026-05-04 14:37 | 54.88591 | 59.52215 | 37871 ft | 422 kts | 201° |
| 2026-05-04 14:37 | 54.82979 | 59.49254 | 37873 ft | 422 kts | 201° |
| 2026-05-04 14:38 | 54.77363 | 59.46300 | 37877 ft | 421 kts | 201° |
| 2026-05-04 14:38 | 54.71747 | 59.43353 | 37880 ft | 421 kts | 201° |
| 2026-05-04 14:39 | 54.66143 | 59.40353 | 37884 ft | 421 kts | 202° |
| 2026-05-04 14:39 | 54.60576 | 59.37360 | 37884 ft | 421 kts | 201° |
| 2026-05-04 14:40 | 54.52166 | 59.32869 | 37889 ft | 421 kts | 201° |
| 2026-05-04 14:40 | 54.46568 | 59.29894 | 37887 ft | 421 kts | 201° |
| 2026-05-04 14:41 | 54.41913 | 59.27426 | 37894 ft | 421 kts | 201° |
| 2026-05-04 14:42 | 54.29810 | 59.21039 | 37887 ft | 420 kts | 201° |
| 2026-05-04 14:42 | 54.25153 | 59.18592 | 37885 ft | 420 kts | 201° |
| 2026-05-04 14:43 | 54.19565 | 59.15663 | 37883 ft | 420 kts | 201° |
| 2026-05-04 14:43 | 54.13975 | 59.12741 | 37887 ft | 420 kts | 201° |
| 2026-05-04 14:44 | 54.08385 | 59.09828 | 37886 ft | 420 kts | 201° |
| 2026-05-04 14:44 | 54.02792 | 59.06921 | 37887 ft | 420 kts | 201° |
| 2026-05-04 14:45 | 53.97198 | 59.04064 | 37885 ft | 420 kts | 201° |
| 2026-05-04 14:45 | 53.91593 | 59.01245 | 37888 ft | 420 kts | 201° |
| 2026-05-04 14:46 | 53.85991 | 58.98428 | 37884 ft | 420 kts | 201° |
| 2026-05-04 14:46 | 53.80424 | 58.95632 | 37887 ft | 420 kts | 201° |
| 2026-05-04 14:47 | 53.74823 | 58.92825 | 37889 ft | 420 kts | 201° |
| 2026-05-04 14:47 | 53.69209 | 58.90019 | 37898 ft | 421 kts | 201° |
| 2026-05-04 14:48 | 53.63589 | 58.87219 | 37910 ft | 421 kts | 201° |
| 2026-05-04 14:48 | 53.57968 | 58.84427 | 37920 ft | 422 kts | 201° |
| 2026-05-04 14:49 | 53.52327 | 58.81632 | 37929 ft | 422 kts | 201° |
| 2026-05-04 14:49 | 53.46687 | 58.78845 | 37934 ft | 422 kts | 201° |
| 2026-05-04 14:50 | 53.41051 | 58.76068 | 37936 ft | 422 kts | 201° |
| 2026-05-04 14:50 | 53.35440 | 58.73156 | 37937 ft | 422 kts | 202° |
| 2026-05-04 14:51 | 53.29893 | 58.70137 | 37936 ft | 422 kts | 202° |
| 2026-05-04 14:51 | 53.24295 | 58.67129 | 37934 ft | 422 kts | 202° |
| 2026-05-04 14:52 | 53.18699 | 58.64147 | 37935 ft | 422 kts | 202° |
| 2026-05-04 14:52 | 53.13098 | 58.61174 | 37923 ft | 423 kts | 202° |
| 2026-05-04 14:53 | 53.07488 | 58.58204 | 37934 ft | 423 kts | 202° |
| 2026-05-04 14:53 | 53.01888 | 58.55248 | 37936 ft | 423 kts | 202° |
| 2026-05-04 14:54 | 52.96279 | 58.52294 | 37935 ft | 422 kts | 202° |
| 2026-05-04 14:54 | 52.90674 | 58.49351 | 37937 ft | 422 kts | 202° |
| 2026-05-04 14:55 | 52.85103 | 58.46434 | 37938 ft | 422 kts | 202° |
| 2026-05-04 14:55 | 52.79501 | 58.43508 | 37933 ft | 422 kts | 202° |
| 2026-05-04 14:56 | 52.73898 | 58.40588 | 37932 ft | 421 kts | 202° |
| 2026-05-04 14:56 | 52.68312 | 58.37686 | 37928 ft | 421 kts | 202° |
| 2026-05-04 14:57 | 52.62719 | 58.34789 | 37928 ft | 421 kts | 202° |
| 2026-05-04 14:57 | 52.57127 | 58.31900 | 37930 ft | 421 kts | 201° |
| 2026-05-04 14:58 | 52.51562 | 58.29087 | 37929 ft | 421 kts | 201° |
| 2026-05-04 14:58 | 52.45957 | 58.26277 | 37927 ft | 421 kts | 201° |
| 2026-05-04 14:59 | 52.40346 | 58.23463 | 37927 ft | 421 kts | 201° |
| 2026-05-04 15:00 | 52.31939 | 58.19257 | 37928 ft | 421 kts | 201° |
| 2026-05-04 15:00 | 52.26371 | 58.16480 | 37923 ft | 421 kts | 201° |
| 2026-05-04 15:01 | 52.17963 | 58.12301 | 37929 ft | 421 kts | 201° |
| 2026-05-04 15:01 | 52.12352 | 58.09522 | 37923 ft | 421 kts | 201° |
| 2026-05-04 15:02 | 52.06775 | 58.06767 | 37930 ft | 420 kts | 201° |
| 2026-05-04 15:02 | 52.01175 | 58.04007 | 37927 ft | 420 kts | 201° |
| 2026-05-04 15:03 | 51.95569 | 58.01251 | 37923 ft | 420 kts | 201° |
| 2026-05-04 15:03 | 51.89961 | 57.98501 | 37922 ft | 420 kts | 201° |
| 2026-05-04 15:04 | 51.84353 | 57.95758 | 37918 ft | 421 kts | 201° |
| 2026-05-04 15:04 | 51.78753 | 57.93026 | 37912 ft | 420 kts | 201° |
| 2026-05-04 15:05 | 51.73150 | 57.90300 | 37923 ft | 420 kts | 201° |
| 2026-05-04 15:05 | 51.67544 | 57.87580 | 37915 ft | 421 kts | 201° |
| 2026-05-04 15:06 | 51.61966 | 57.84880 | 37913 ft | 421 kts | 201° |
| 2026-05-04 15:07 | 51.53543 | 57.80816 | 37914 ft | 421 kts | 201° |
| 2026-05-04 15:07 | 51.47925 | 57.78114 | 37912 ft | 421 kts | 200° |
| 2026-05-04 15:08 | 51.42304 | 57.75418 | 37913 ft | 421 kts | 200° |
| 2026-05-04 15:08 | 51.36717 | 57.72745 | 37910 ft | 422 kts | 200° |
| 2026-05-04 15:09 | 51.31091 | 57.70060 | 37912 ft | 422 kts | 200° |
| 2026-05-04 15:09 | 51.25448 | 57.67376 | 37912 ft | 422 kts | 200° |
| 2026-05-04 15:10 | 51.17020 | 57.63381 | 37918 ft | 423 kts | 200° |
| 2026-05-04 15:11 | 51.08551 | 57.59380 | 37916 ft | 423 kts | 200° |
| 2026-05-04 15:11 | 51.02901 | 57.56720 | 37910 ft | 423 kts | 200° |
| 2026-05-04 15:12 | 50.97247 | 57.54065 | 37913 ft | 423 kts | 200° |
| 2026-05-04 15:12 | 50.91597 | 57.51416 | 37909 ft | 423 kts | 201° |
| 2026-05-04 15:13 | 50.86149 | 57.48041 | 37907 ft | 419 kts | 210° |
| 2026-05-04 15:13 | 50.81122 | 57.43467 | 37906 ft | 416 kts | 214° |
| 2026-05-04 15:14 | 50.76205 | 57.38727 | 37906 ft | 416 kts | 214° |
| 2026-05-04 15:14 | 50.71236 | 57.33989 | 37900 ft | 416 kts | 214° |
| 2026-05-04 15:15 | 50.66272 | 57.29280 | 37901 ft | 416 kts | 214° |
| 2026-05-04 15:15 | 50.61304 | 57.24579 | 37894 ft | 417 kts | 214° |
| 2026-05-04 15:16 | 50.53873 | 57.17569 | 37892 ft | 417 kts | 214° |
| 2026-05-04 15:17 | 50.46397 | 57.10543 | 37894 ft | 417 kts | 214° |
| 2026-05-04 15:17 | 50.38879 | 57.03607 | 37903 ft | 418 kts | 213° |
| 2026-05-04 15:18 | 50.33838 | 56.99023 | 37902 ft | 419 kts | 213° |
| 2026-05-04 15:19 | 50.26302 | 56.92168 | 37904 ft | 419 kts | 213° |
| 2026-05-04 15:19 | 50.18721 | 56.85297 | 37902 ft | 420 kts | 213° |
| 2026-05-04 15:20 | 50.13654 | 56.80719 | 37901 ft | 420 kts | 213° |
| 2026-05-04 15:20 | 50.08625 | 56.76185 | 37904 ft | 421 kts | 213° |
| 2026-05-04 15:21 | 50.03550 | 56.71621 | 37905 ft | 421 kts | 213° |
| 2026-05-04 15:22 | 49.95930 | 56.64791 | 37896 ft | 421 kts | 213° |
| 2026-05-04 15:22 | 49.88298 | 56.57974 | 37896 ft | 422 kts | 213° |
| 2026-05-04 15:23 | 49.83207 | 56.53441 | 37891 ft | 422 kts | 213° |
| 2026-05-04 15:23 | 49.78145 | 56.48945 | 37909 ft | 422 kts | 213° |
| 2026-05-04 15:24 | 49.67938 | 56.39911 | 37901 ft | 422 kts | 213° |
| 2026-05-04 15:25 | 49.62828 | 56.35406 | 37898 ft | 423 kts | 213° |
| 2026-05-04 15:26 | 49.55192 | 56.28694 | 37897 ft | 423 kts | 213° |
| 2026-05-04 15:26 | 49.47510 | 56.21965 | 37895 ft | 423 kts | 213° |
| 2026-05-04 15:27 | 49.39825 | 56.15259 | 37893 ft | 423 kts | 212° |
| 2026-05-04 15:28 | 49.32169 | 56.08601 | 37893 ft | 423 kts | 212° |
| 2026-05-04 15:29 | 49.24476 | 56.01936 | 37895 ft | 423 kts | 212° |
| 2026-05-04 15:30 | 49.07341 | 55.87177 | 37898 ft | 424 kts | 212° |
| 2026-05-04 15:31 | 48.99616 | 55.80561 | 37905 ft | 425 kts | 212° |
| 2026-05-04 15:32 | 48.86717 | 55.69566 | 37903 ft | 425 kts | 212° |
| 2026-05-04 15:34 | 48.74435 | 55.57313 | 37904 ft | 423 kts | 216° |
| 2026-05-04 15:34 | 48.67099 | 55.49833 | 37903 ft | 423 kts | 216° |
| 2026-05-04 15:35 | 48.59770 | 55.42394 | 37906 ft | 423 kts | 216° |
| 2026-05-04 15:36 | 48.52458 | 55.34998 | 37905 ft | 423 kts | 216° |
| 2026-05-04 15:36 | 48.47569 | 55.30068 | 37909 ft | 422 kts | 216° |
| 2026-05-04 15:37 | 48.42681 | 55.25150 | 37903 ft | 422 kts | 216° |
| 2026-05-04 15:37 | 48.37789 | 55.20241 | 37900 ft | 422 kts | 216° |